createdAt,value
2017-12-05T00:02:09.053Z,102544.11
2017-12-05T00:04:36.616Z,102542.73
2017-12-05T00:07:03.481Z,102546.72
2017-12-05T00:09:31.051Z,102544.64
2017-12-05T00:11:57.879Z,102539.39
2017-12-05T00:14:24.718Z,102528.81
2017-12-05T00:16:52.306Z,102534.09
2017-12-05T00:19:19.166Z,102526.23
2017-12-05T00:21:45.984Z,102525.80
2017-12-05T00:24:13.599Z,102524.08
2017-12-05T00:26:40.440Z,102515.80
2017-12-05T00:29:07.270Z,102512.20
2017-12-05T00:31:34.122Z,102506.95
2017-12-05T00:34:01.013Z,102505.66
2017-12-05T00:36:28.616Z,102498.66
2017-12-05T00:38:55.463Z,102492.11
2017-12-05T00:41:22.386Z,102496.52
2017-12-05T00:43:49.211Z,102488.55
2017-12-05T00:46:16.110Z,102490.34
2017-12-05T00:48:42.981Z,102491.21
2017-12-05T00:51:09.798Z,102496.17
2017-12-05T00:53:36.601Z,102501.45
2017-12-05T00:56:03.557Z,102505.34
2017-12-05T00:58:30.419Z,102512.76
2017-12-05T01:00:58.026Z,102494.78
2017-12-05T01:03:25.572Z,102493.42
2017-12-05T01:05:52.379Z,102504.39
2017-12-05T01:08:19.235Z,102508.84
2017-12-05T01:10:46.106Z,102505.32
2017-12-05T01:13:12.922Z,102502.66
2017-12-05T01:15:39.786Z,102503.20
2017-12-05T01:18:06.590Z,102504.52
2017-12-05T01:20:33.518Z,102508.90
2017-12-05T01:23:01.090Z,102507.08
2017-12-05T01:25:28.648Z,102501.84
2017-12-05T01:27:55.456Z,102511.46
2017-12-05T01:30:22.299Z,102518.04
2017-12-05T01:32:49.889Z,102517.15
2017-12-05T01:35:17.533Z,102513.33
2017-12-05T01:37:45.104Z,102516.79
2017-12-05T01:40:11.924Z,102514.70
2017-12-05T01:42:38.750Z,102521.69
2017-12-05T01:45:05.613Z,102520.32
2017-12-05T01:47:32.483Z,102523.34
2017-12-05T01:49:59.280Z,102529.16
2017-12-05T01:52:26.121Z,102528.25
2017-12-05T01:54:52.932Z,102527.46
2017-12-05T01:57:19.834Z,102525.18
2017-12-05T01:59:47.415Z,102527.35
2017-12-05T02:02:15.141Z,102526.44
2017-12-05T02:04:42.076Z,102531.77
2017-12-05T02:07:09.002Z,102525.55
2017-12-05T02:09:36.656Z,102526.98
2017-12-05T02:12:03.533Z,102533.48
2017-12-05T02:14:30.398Z,102536.17
2017-12-05T02:16:57.327Z,102540.09
2017-12-05T02:19:24.251Z,102538.73
2017-12-05T02:21:51.217Z,102544.52
2017-12-05T02:24:18.025Z,102539.27
2017-12-05T02:26:44.946Z,102551.02
2017-12-05T02:29:11.771Z,102543.14
2017-12-05T02:31:38.595Z,102541.41
2017-12-05T02:34:05.479Z,102547.09
2017-12-05T02:36:32.308Z,102543.19
2017-12-05T02:38:59.153Z,102547.51
2017-12-05T02:41:25.952Z,102548.42
2017-12-05T02:43:52.776Z,102547.08
2017-12-05T02:46:19.648Z,102546.20
2017-12-05T02:48:46.531Z,102541.00
2017-12-05T02:51:13.385Z,102539.79
2017-12-05T02:53:40.244Z,102536.64
2017-12-05T02:56:07.239Z,102539.25
2017-12-05T02:58:34.072Z,102548.92
2017-12-05T03:01:00.946Z,102537.48
2017-12-05T03:03:27.803Z,102543.25
2017-12-05T03:05:54.663Z,102545.39
2017-12-05T03:08:21.512Z,102544.51
2017-12-05T03:10:48.375Z,102543.65
2017-12-05T03:13:15.226Z,102548.48
2017-12-05T03:15:42.078Z,102539.69
2017-12-05T03:18:08.925Z,102538.03
2017-12-05T03:20:36.503Z,102528.76
2017-12-05T03:23:04.118Z,102523.97
2017-12-05T03:25:30.932Z,102521.80
2017-12-05T03:27:58.478Z,102522.28
2017-12-05T03:30:25.349Z,102528.37
2017-12-05T03:32:52.203Z,102525.73
2017-12-05T03:35:20.886Z,102514.83
2017-12-05T03:37:47.740Z,102520.91
2017-12-05T03:40:14.587Z,102511.27
2017-12-05T03:42:41.397Z,102504.73
2017-12-05T03:45:08.313Z,102499.95
2017-12-05T03:47:35.113Z,102496.86
2017-12-05T03:50:01.929Z,102498.67
2017-12-05T03:52:28.787Z,102492.08
2017-12-05T03:54:55.602Z,102496.00
2017-12-05T03:57:22.412Z,102495.12
2017-12-05T03:59:49.243Z,102504.77
2017-12-05T04:02:16.072Z,102496.88
2017-12-05T04:04:42.896Z,102500.38
2017-12-05T04:07:09.749Z,102502.56
2017-12-05T04:09:36.598Z,102499.95
2017-12-05T04:12:03.421Z,102501.31
2017-12-05T04:14:30.233Z,102503.95
2017-12-05T04:16:57.075Z,102505.22
2017-12-05T04:19:23.903Z,102499.92
2017-12-05T04:21:50.685Z,102502.59
2017-12-05T04:24:17.496Z,102502.22
2017-12-05T04:26:44.387Z,102495.55
2017-12-05T04:29:11.215Z,102499.54
2017-12-05T04:31:38.047Z,102500.39
2017-12-05T04:34:04.919Z,102504.42
2017-12-05T04:36:31.780Z,102503.04
2017-12-05T04:38:58.616Z,102506.95
2017-12-05T04:41:25.444Z,102511.77
2017-12-05T04:43:52.313Z,102503.86
2017-12-05T04:46:19.125Z,102500.87
2017-12-05T04:48:45.953Z,102510.45
2017-12-05T04:51:13.534Z,102506.61
2017-12-05T04:53:40.419Z,102503.06
2017-12-05T04:56:07.279Z,102496.98
2017-12-05T04:58:34.132Z,102500.41
2017-12-05T05:01:01.767Z,102506.12
2017-12-05T05:03:28.607Z,102510.50
2017-12-05T05:05:55.447Z,102514.42
2017-12-05T05:08:22.281Z,102511.33
2017-12-05T05:10:49.099Z,102510.52
2017-12-05T05:13:15.933Z,102516.62
2017-12-05T05:15:42.766Z,102510.98
2017-12-05T05:18:10.292Z,102512.70
2017-12-05T05:20:37.131Z,102517.98
2017-12-05T05:23:03.940Z,102515.80
2017-12-05T05:25:30.802Z,102512.68
2017-12-05T05:27:57.659Z,102516.19
2017-12-05T05:30:24.578Z,102512.27
2017-12-05T05:32:51.435Z,102517.98
2017-12-05T05:35:18.306Z,102522.84
2017-12-05T05:37:45.138Z,102521.46
2017-12-05T05:40:11.970Z,102522.81
2017-12-05T05:42:38.814Z,102526.72
2017-12-05T05:45:05.640Z,102521.91
2017-12-05T05:47:32.457Z,102522.84
2017-12-05T05:49:59.277Z,102535.52
2017-12-05T05:52:26.084Z,102518.42
2017-12-05T05:54:52.904Z,102525.84
2017-12-05T05:57:20.419Z,102521.51
2017-12-05T05:59:47.263Z,102530.23
2017-12-05T06:02:14.157Z,102527.13
2017-12-05T06:04:41.806Z,102528.46
2017-12-05T06:07:08.647Z,102520.12
2017-12-05T06:09:35.502Z,102519.26
2017-12-05T06:12:02.351Z,102524.99
2017-12-05T06:14:29.189Z,102522.31
2017-12-05T06:16:56.756Z,102532.05
2017-12-05T06:19:23.594Z,102524.98
2017-12-05T06:21:50.430Z,102529.38
2017-12-05T06:24:18.012Z,102521.46
2017-12-05T06:26:44.868Z,102540.25
2017-12-05T06:29:11.678Z,102530.65
2017-12-05T06:31:38.520Z,102534.56
2017-12-05T06:34:05.388Z,102532.84
2017-12-05T06:36:32.260Z,102531.54
2017-12-05T06:38:59.083Z,102539.42
2017-12-05T06:41:25.944Z,102531.54
2017-12-05T06:43:52.771Z,102533.30
2017-12-05T06:46:19.639Z,102535.09
2017-12-05T06:48:46.485Z,102541.16
2017-12-05T06:51:13.373Z,102536.80
2017-12-05T06:53:40.307Z,102533.30
2017-12-05T06:56:07.966Z,102536.80
2017-12-05T06:58:34.870Z,102534.19
2017-12-05T07:01:01.819Z,102547.27
2017-12-05T07:03:28.767Z,102539.44
2017-12-05T07:05:56.393Z,102548.99
2017-12-05T07:08:23.256Z,102543.75
2017-12-05T07:10:50.146Z,102542.91
2017-12-05T07:13:17.067Z,102545.54
2017-12-05T07:15:43.990Z,102551.20
2017-12-05T07:18:10.893Z,102552.92
2017-12-05T07:20:37.797Z,102558.63
2017-12-05T07:23:04.664Z,102559.94
2017-12-05T07:25:31.607Z,102563.00
2017-12-05T07:27:58.491Z,102558.64
2017-12-05T07:30:25.334Z,102559.52
2017-12-05T07:32:52.217Z,102563.86
2017-12-05T07:35:19.106Z,102566.92
2017-12-05T07:37:46.789Z,102561.28
2017-12-05T07:40:13.643Z,102559.91
2017-12-05T07:42:41.239Z,102573.02
2017-12-05T07:45:08.107Z,102570.45
2017-12-05T07:47:34.974Z,102573.05
2017-12-05T07:50:01.898Z,102573.48
2017-12-05T07:52:29.526Z,102579.58
2017-12-05T07:54:56.395Z,102572.14
2017-12-05T07:57:23.259Z,102576.55
2017-12-05T07:59:50.183Z,102568.64
2017-12-05T08:02:17.073Z,102578.28
2017-12-05T08:04:43.940Z,102579.62
2017-12-05T08:07:10.868Z,102574.78
2017-12-05T08:09:37.776Z,102577.42
2017-12-05T08:12:04.738Z,102581.33
2017-12-05T08:14:31.689Z,102577.41
2017-12-05T08:16:58.607Z,102578.66
2017-12-05T08:19:26.200Z,102575.62
2017-12-05T08:21:53.123Z,102575.20
2017-12-05T08:24:20.009Z,102573.89
2017-12-05T08:26:47.647Z,102571.73
2017-12-05T08:29:14.569Z,102576.48
2017-12-05T08:31:41.506Z,102568.25
2017-12-05T08:34:08.362Z,102570.81
2017-12-05T08:36:35.280Z,102564.69
2017-12-05T08:39:02.275Z,102570.80
2017-12-05T08:41:29.137Z,102569.95
2017-12-05T08:43:56.056Z,102570.81
2017-12-05T08:46:22.955Z,102575.22
2017-12-05T08:48:49.838Z,102574.75
2017-12-05T08:51:16.729Z,102576.52
2017-12-05T08:53:44.323Z,102577.36
2017-12-05T08:56:11.171Z,102581.77
2017-12-05T08:58:38.047Z,102585.26
2017-12-05T09:01:04.941Z,102575.59
2017-12-05T09:03:31.802Z,102582.18
2017-12-05T09:05:58.654Z,102575.20
2017-12-05T09:08:25.580Z,102590.91
2017-12-05T09:10:52.495Z,102585.26
2017-12-05T09:13:19.411Z,102591.80
2017-12-05T09:15:46.301Z,102588.73
2017-12-05T09:18:13.192Z,102588.28
2017-12-05T09:20:40.111Z,102593.52
2017-12-05T09:23:07.002Z,102594.83
2017-12-05T09:25:33.893Z,102596.59
2017-12-05T09:28:00.802Z,102595.26
2017-12-05T09:30:27.736Z,102604.88
2017-12-05T09:32:55.354Z,102599.20
2017-12-05T09:35:22.248Z,102602.23
2017-12-05T09:37:49.183Z,102608.39
2017-12-05T09:40:16.133Z,102609.23
2017-12-05T09:42:43.031Z,102605.34
2017-12-05T09:45:09.956Z,102611.01
2017-12-05T09:47:36.907Z,102609.27
2017-12-05T09:50:03.815Z,102613.60
2017-12-05T09:52:30.703Z,102616.67
2017-12-05T09:54:57.599Z,102618.41
2017-12-05T09:57:24.520Z,102623.67
2017-12-05T09:59:51.442Z,102619.75
2017-12-05T10:02:18.347Z,102620.16
2017-12-05T10:04:45.288Z,102617.14
2017-12-05T10:07:12.226Z,102614.92
2017-12-05T10:09:39.123Z,102617.11
2017-12-05T10:12:06.040Z,102605.72
2017-12-05T10:14:32.947Z,102603.98
2017-12-05T10:16:59.841Z,102605.77
2017-12-05T10:19:27.507Z,102600.03
2017-12-05T10:21:54.434Z,102595.25
2017-12-05T10:24:21.357Z,102592.16
2017-12-05T10:26:48.277Z,102594.78
2017-12-05T10:29:15.239Z,102590.41
2017-12-05T10:31:42.166Z,102590.88
2017-12-05T10:34:09.040Z,102587.78
2017-12-05T10:36:35.928Z,102593.93
2017-12-05T10:39:02.907Z,102590.88
2017-12-05T10:41:29.762Z,102595.65
2017-12-05T10:43:56.691Z,102595.67
2017-12-05T10:46:24.354Z,102593.46
2017-12-05T10:48:51.263Z,102586.48
2017-12-05T10:51:18.148Z,102587.79
2017-12-05T10:53:45.827Z,102585.19
2017-12-05T10:56:13.476Z,102592.61
2017-12-05T10:58:40.337Z,102583.43
2017-12-05T11:01:07.212Z,102583.41
2017-12-05T11:03:34.110Z,102584.25
2017-12-05T11:06:01.025Z,102581.20
2017-12-05T11:08:27.861Z,102587.33
2017-12-05T11:10:54.791Z,102576.36
2017-12-05T11:13:22.429Z,102573.31
2017-12-05T11:15:49.291Z,102583.81
2017-12-05T11:18:16.191Z,102574.16
2017-12-05T11:20:43.866Z,102579.83
2017-12-05T11:23:11.592Z,102575.04
2017-12-05T11:25:38.546Z,102581.61
2017-12-05T11:28:06.205Z,102576.35
2017-12-05T11:30:33.130Z,102579.41
2017-12-05T11:33:00.059Z,102574.58
2017-12-05T11:35:26.916Z,102576.75
2017-12-05T11:37:53.802Z,102578.08
2017-12-05T11:40:20.732Z,102571.94
2017-12-05T11:42:47.623Z,102578.92
2017-12-05T11:45:14.550Z,102573.70
2017-12-05T11:47:41.376Z,102575.86
2017-12-05T11:50:08.270Z,102570.17
2017-12-05T11:52:35.115Z,102562.73
2017-12-05T11:55:02.801Z,102562.28
2017-12-05T11:57:30.461Z,102567.97
2017-12-05T11:59:57.287Z,102564.03
2017-12-05T12:02:24.185Z,102562.25
2017-12-05T12:04:51.062Z,102562.28
2017-12-05T12:07:18.685Z,102560.09
2017-12-05T12:09:45.493Z,102554.38
2017-12-05T12:12:13.091Z,102560.53
2017-12-05T12:14:39.922Z,102559.63
2017-12-05T12:17:06.740Z,102553.92
2017-12-05T12:19:33.539Z,102553.92
2017-12-05T12:22:00.413Z,102550.84
2017-12-05T12:24:28.188Z,102549.97
2017-12-05T12:26:55.107Z,102549.14
2017-12-05T12:29:21.963Z,102553.49
2017-12-05T12:31:48.912Z,102550.86
2017-12-05T12:34:15.770Z,102546.92
2017-12-05T12:36:42.639Z,102549.55
2017-12-05T12:39:09.525Z,102549.97
2017-12-05T12:41:36.474Z,102543.86
2017-12-05T12:44:03.374Z,102546.03
2017-12-05T12:46:30.211Z,102533.33
2017-12-05T12:48:57.071Z,102539.47
2017-12-05T12:51:23.971Z,102533.77
2017-12-05T12:53:50.818Z,102533.77
2017-12-05T12:56:17.656Z,102540.31
2017-12-05T12:58:44.597Z,102535.51
2017-12-05T13:01:11.460Z,102535.06
2017-12-05T13:03:38.325Z,102538.12
2017-12-05T13:06:05.183Z,102526.33
2017-12-05T13:08:32.055Z,102527.63
2017-12-05T13:10:58.917Z,102525.45
2017-12-05T13:13:25.778Z,102523.67
2017-12-05T13:15:52.612Z,102525.90
2017-12-05T13:18:20.244Z,102528.95
2017-12-05T13:20:47.149Z,102527.63
2017-12-05T13:23:14.785Z,102514.94
2017-12-05T13:25:41.652Z,102516.70
2017-12-05T13:28:08.564Z,102519.33
2017-12-05T13:30:35.475Z,102518.44
2017-12-05T13:33:02.361Z,102513.19
2017-12-05T13:35:29.296Z,102516.27
2017-12-05T13:37:56.181Z,102516.72
2017-12-05T13:40:23.099Z,102514.48
2017-12-05T13:42:49.941Z,102508.81
2017-12-05T13:45:16.845Z,102511.00
2017-12-05T13:47:43.747Z,102509.26
2017-12-05T13:50:11.383Z,102511.46
2017-12-05T13:52:38.453Z,102517.59
2017-12-05T13:55:05.388Z,102515.36
2017-12-05T13:57:32.287Z,102517.13
2017-12-05T13:59:59.182Z,102506.64
2017-12-05T14:02:26.816Z,102514.50
2017-12-05T14:04:53.738Z,102514.49
2017-12-05T14:07:21.676Z,102514.52
2017-12-05T14:09:48.891Z,102508.37
2017-12-05T14:12:15.764Z,102514.05
2017-12-05T14:14:44.204Z,102514.02
2017-12-05T14:17:12.288Z,102517.56
2017-12-05T14:19:40.048Z,102521.91
2017-12-05T14:22:06.981Z,102519.25
2017-12-05T14:24:34.703Z,102520.19
2017-12-05T14:27:03.343Z,102521.09
2017-12-05T14:29:30.307Z,102514.52
2017-12-05T14:31:57.175Z,102511.84
2017-12-05T14:34:24.080Z,102515.38
2017-12-05T14:36:51.001Z,102511.87
2017-12-05T14:39:17.885Z,102512.75
2017-12-05T14:41:44.790Z,102513.63
2017-12-05T14:44:11.692Z,102511.87
2017-12-05T14:46:38.558Z,102512.75
2017-12-05T14:49:06.211Z,102509.70
2017-12-05T14:51:33.099Z,102505.75
2017-12-05T14:53:59.940Z,102509.68
2017-12-05T14:56:26.875Z,102503.55
2017-12-05T14:58:54.269Z,102507.53
2017-12-05T15:01:21.154Z,102505.34
2017-12-05T15:03:48.018Z,102500.52
2017-12-05T15:06:15.151Z,102502.28
2017-12-05T15:08:42.499Z,102509.25
2017-12-05T15:11:09.385Z,102502.28
2017-12-05T15:13:36.411Z,102507.52
2017-12-05T15:16:03.625Z,102507.95
2017-12-05T15:18:30.546Z,102508.83
2017-12-05T15:20:57.411Z,102504.91
2017-12-05T15:23:24.294Z,102505.33
2017-12-05T15:25:52.215Z,102504.86
2017-12-05T15:28:20.110Z,102500.08
2017-12-05T15:30:47.003Z,102507.52
2017-12-05T15:33:14.044Z,102501.83
2017-12-05T15:35:40.959Z,102506.64
2017-12-05T15:38:08.579Z,102510.16
2017-12-05T15:40:35.527Z,102506.67
2017-12-05T15:43:02.511Z,102502.73
2017-12-05T15:45:30.179Z,102507.50
2017-12-05T15:47:57.069Z,102510.61
2017-12-05T15:50:24.667Z,102513.66
2017-12-05T15:52:51.530Z,102514.13
2017-12-05T15:55:18.463Z,102509.69
2017-12-05T15:57:45.374Z,102516.27
2017-12-05T16:00:12.822Z,102516.26
2017-12-05T16:02:39.965Z,102525.03
2017-12-05T16:05:07.992Z,102529.39
2017-12-05T16:07:34.934Z,102527.64
2017-12-05T16:10:03.597Z,102526.81
2017-12-05T16:12:31.076Z,102525.92
2017-12-05T16:14:58.628Z,102531.16
2017-12-05T16:17:26.200Z,102529.87
2017-12-05T16:19:53.348Z,102533.34
2017-12-05T16:22:20.555Z,102534.69
2017-12-05T16:24:48.370Z,102535.50
2017-12-05T16:27:15.272Z,102533.78
2017-12-05T16:29:42.888Z,102526.80
2017-12-05T16:32:09.756Z,102528.13
2017-12-05T16:34:36.653Z,102528.09
2017-12-05T16:37:04.280Z,102527.23
2017-12-05T16:39:31.176Z,102533.34
2017-12-05T16:41:58.039Z,102531.20
2017-12-05T16:44:24.938Z,102526.79
2017-12-05T16:46:52.984Z,102530.70
2017-12-05T16:49:19.931Z,102532.91
2017-12-05T16:51:46.836Z,102524.61
2017-12-05T16:54:14.796Z,102529.41
2017-12-05T16:56:41.760Z,102528.11
2017-12-05T16:59:08.642Z,102532.03
2017-12-05T17:01:36.311Z,102530.23
2017-12-05T17:04:03.317Z,102535.09
2017-12-05T17:06:30.264Z,102531.59
2017-12-05T17:08:57.231Z,102537.73
2017-12-05T17:11:24.360Z,102532.87
2017-12-05T17:13:51.831Z,102537.27
2017-12-05T17:16:18.771Z,102545.60
2017-12-05T17:18:46.245Z,102535.94
2017-12-05T17:21:13.192Z,102535.53
2017-12-05T17:23:40.160Z,102536.88
2017-12-05T17:26:07.485Z,102540.33
2017-12-05T17:28:34.378Z,102536.80
2017-12-05T17:31:01.281Z,102540.34
2017-12-05T17:33:28.175Z,102535.98
2017-12-05T17:35:55.063Z,102533.77
2017-12-05T17:38:21.936Z,102527.22
2017-12-05T17:40:49.286Z,102534.63
2017-12-05T17:43:16.933Z,102537.22
2017-12-05T17:45:44.454Z,102530.67
2017-12-05T17:48:11.389Z,102528.06
2017-12-05T17:50:38.562Z,102519.33
2017-12-05T17:53:06.858Z,102528.89
2017-12-05T17:55:34.560Z,102525.88
2017-12-05T17:58:01.506Z,102530.17
2017-12-05T18:00:29.156Z,102525.41
2017-12-05T18:02:57.020Z,102522.80
2017-12-05T18:05:25.597Z,102521.02
2017-12-05T18:07:52.544Z,102516.67
2017-12-05T18:10:20.875Z,102514.47
2017-12-05T18:12:48.482Z,102511.40
2017-12-05T18:15:17.756Z,102507.91
2017-12-05T18:17:48.910Z,102509.68
2017-12-05T18:20:16.685Z,102509.23
2017-12-05T18:22:44.556Z,102515.77
2017-12-05T18:25:13.223Z,102513.13
2017-12-05T18:27:41.884Z,102517.98
2017-12-05T18:30:09.009Z,102515.36
2017-12-05T18:32:37.469Z,102510.94
2017-12-05T18:35:06.792Z,102517.09
2017-12-05T18:37:35.626Z,102513.10
2017-12-05T18:40:02.583Z,102519.27
2017-12-05T18:42:30.365Z,102514.47
2017-12-05T18:44:59.055Z,102520.55
2017-12-05T18:47:27.819Z,102518.41
2017-12-05T18:49:57.246Z,102517.53
2017-12-05T18:52:26.501Z,102519.75
2017-12-05T18:54:59.570Z,102519.68
2017-12-05T18:57:28.939Z,102526.28
2017-12-05T18:59:57.717Z,102526.70
2017-12-05T19:02:26.535Z,102518.36
2017-12-05T19:04:55.148Z,102513.55
2017-12-05T19:07:24.971Z,102518.41
2017-12-05T19:09:53.830Z,102519.25
2017-12-05T19:12:21.234Z,102516.65
2017-12-05T19:14:50.127Z,102520.12
2017-12-05T19:17:19.843Z,102519.21
2017-12-05T19:19:47.620Z,102523.20
2017-12-05T19:22:16.544Z,102522.76
2017-12-05T19:24:45.168Z,102513.13
2017-12-05T19:27:14.329Z,102521.89
2017-12-05T19:29:43.382Z,102522.30
2017-12-05T19:32:12.626Z,102520.12
2017-12-05T19:34:44.075Z,102516.68
2017-12-05T19:37:13.276Z,102520.56
2017-12-05T19:39:42.364Z,102520.16
2017-12-05T19:42:11.326Z,102534.20
2017-12-05T19:44:40.361Z,102527.62
2017-12-05T19:47:09.232Z,102524.06
2017-12-05T19:49:38.379Z,102518.85
2017-12-05T19:52:07.363Z,102517.09
2017-12-05T19:54:36.409Z,102515.31
2017-12-05T19:57:05.547Z,102505.29
2017-12-05T19:59:35.335Z,102510.52
2017-12-05T20:02:03.880Z,102507.89
2017-12-05T20:04:32.840Z,102509.61
2017-12-05T20:07:01.613Z,102509.22
2017-12-05T20:09:30.716Z,102513.58
2017-12-05T20:12:00.521Z,102509.19
2017-12-05T20:14:29.779Z,102498.66
2017-12-05T20:16:58.567Z,102500.42
2017-12-05T20:19:27.512Z,102502.61
2017-12-05T20:21:54.510Z,102499.58
2017-12-05T20:24:22.949Z,102497.78
2017-12-05T20:26:51.903Z,102510.05
2017-12-05T20:29:20.757Z,102505.60
2017-12-05T20:31:50.388Z,102505.21
2017-12-05T20:34:19.514Z,102501.28
2017-12-05T20:36:48.600Z,102505.25
2017-12-05T20:39:18.914Z,102505.65
2017-12-05T20:41:47.983Z,102499.06
2017-12-05T20:44:17.502Z,102505.19
2017-12-05T20:46:46.693Z,102501.27
2017-12-05T20:49:16.581Z,102502.61
2017-12-05T20:51:45.685Z,102504.80
2017-12-05T20:54:14.488Z,102497.76
2017-12-05T20:56:43.287Z,102498.25
2017-12-05T20:59:12.275Z,102499.12
2017-12-05T21:01:41.850Z,102501.72
2017-12-05T21:04:11.545Z,102493.88
2017-12-05T21:06:40.497Z,102493.44
2017-12-05T21:09:09.273Z,102495.18
2017-12-05T21:11:37.827Z,102496.92
2017-12-05T21:14:06.931Z,102492.97
2017-12-05T21:16:35.724Z,102488.13
2017-12-05T21:19:04.506Z,102487.73
2017-12-05T21:21:33.226Z,102486.42
2017-12-05T21:24:01.368Z,102489.01
2017-12-05T21:26:31.333Z,102486.83
2017-12-05T21:29:01.408Z,102483.34
2017-12-05T21:31:30.096Z,102480.69
2017-12-05T21:33:58.718Z,102482.89
2017-12-05T21:36:26.721Z,102475.03
2017-12-05T21:38:54.330Z,102475.05
2017-12-05T21:41:21.272Z,102478.09
2017-12-05T21:43:48.730Z,102482.02
2017-12-05T21:46:15.660Z,102493.00
2017-12-05T21:48:42.878Z,102481.53
2017-12-05T21:51:10.021Z,102477.64
2017-12-05T21:53:36.874Z,102486.00
2017-12-05T21:56:04.454Z,102476.36
2017-12-05T21:58:31.299Z,102472.41
2017-12-05T22:00:58.103Z,102471.56
2017-12-05T22:03:24.949Z,102465.88
2017-12-05T22:05:51.809Z,102472.89
2017-12-05T22:08:18.651Z,102470.70
2017-12-05T22:10:46.226Z,102474.59
2017-12-05T22:13:13.839Z,102471.14
2017-12-05T22:15:40.674Z,102471.14
2017-12-05T22:18:08.276Z,102467.20
2017-12-05T22:20:35.116Z,102466.31
2017-12-05T22:23:02.710Z,102460.63
2017-12-05T22:25:29.586Z,102459.74
2017-12-05T22:27:56.408Z,102461.94
2017-12-05T22:30:23.980Z,102461.09
2017-12-05T22:32:52.827Z,102465.03
2017-12-05T22:35:19.640Z,102467.64
2017-12-05T22:37:46.487Z,102463.27
2017-12-05T22:40:13.324Z,102473.33
2017-12-05T22:42:40.153Z,102469.39
2017-12-05T22:45:07.027Z,102470.27
2017-12-05T22:47:33.817Z,102470.26
2017-12-05T22:50:00.640Z,102472.41
2017-12-05T22:52:27.498Z,102483.38
2017-12-05T22:54:54.327Z,102468.07
2017-12-05T22:57:21.146Z,102476.85
2017-12-05T22:59:47.950Z,102477.70
2017-12-05T23:02:14.786Z,102474.17
2017-12-05T23:04:41.599Z,102481.64
2017-12-05T23:07:08.474Z,102476.36
2017-12-05T23:09:35.292Z,102476.38
2017-12-05T23:12:02.103Z,102475.06
2017-12-05T23:14:28.926Z,102480.78
2017-12-05T23:16:56.515Z,102479.02
2017-12-05T23:19:24.098Z,102470.30
2017-12-05T23:21:50.921Z,102481.63
2017-12-05T23:24:17.817Z,102470.30
2017-12-05T23:26:45.373Z,102476.41
2017-12-05T23:29:12.202Z,102474.23
2017-12-05T23:31:39.047Z,102472.46
2017-12-05T23:34:05.863Z,102470.30
2017-12-05T23:36:32.653Z,102470.77
2017-12-05T23:38:59.476Z,102471.63
2017-12-05T23:41:26.282Z,102470.78
2017-12-05T23:43:53.100Z,102468.58
2017-12-05T23:46:19.969Z,102469.47
2017-12-05T23:48:46.811Z,102461.09
2017-12-05T23:51:13.631Z,102460.71
2017-12-05T23:53:40.423Z,102470.32
2017-12-05T23:56:07.295Z,102465.94
2017-12-05T23:58:34.054Z,102466.81
